sensor_id;sensor_type;location;lat;lon;timestamp;P1;durP1;ratioP1;P2;durP2;ratioP2
8092;SDS011;4089;52.420;13.334;2024-02-16T00:02:01;31.70;;;8.23;;
8092;SDS011;4089;52.420;13.334;2024-02-16T00:04:28;32.00;;;9.70;;
8092;SDS011;4089;52.420;13.334;2024-02-16T00:06:55;32.10;;;8.53;;
8092;SDS011;4089;52.420;13.334;2024-02-16T00:09:22;31.23;;;9.13;;
8092;SDS011;4089;52.420;13.334;2024-02-16T00:11:49;34.10;;;10.73;;
8092;SDS011;4089;52.420;13.334;2024-02-16T00:14:18;32.17;;;9.77;;
8092;SDS011;4089;52.420;13.334;2024-02-16T00:16:47;33.90;;;10.60;;
8092;SDS011;4089;52.420;13.334;2024-02-16T00:19:14;38.33;;;10.23;;
8092;SDS011;4089;52.420;13.334;2024-02-16T00:21:41;37.60;;;11.10;;
8092;SDS011;4089;52.420;13.334;2024-02-16T00:24:09;33.87;;;9.53;;
8092;SDS011;4089;52.420;13.334;2024-02-16T00:26:36;34.70;;;10.60;;
8092;SDS011;4089;52.420;13.334;2024-02-16T00:29:06;36.87;;;11.80;;
8092;SDS011;4089;52.420;13.334;2024-02-16T00:31:33;35.47;;;10.57;;
8092;SDS011;4089;52.420;13.334;2024-02-16T00:34:00;37.17;;;11.93;;
8092;SDS011;4089;52.420;13.334;2024-02-16T00:36:27;37.20;;;11.83;;
8092;SDS011;4089;52.420;13.334;2024-02-16T00:38:54;37.03;;;12.67;;
8092;SDS011;4089;52.420;13.334;2024-02-16T00:41:22;40.80;;;12.63;;
8092;SDS011;4089;52.420;13.334;2024-02-16T00:43:50;37.70;;;13.47;;
8092;SDS011;4089;52.420;13.334;2024-02-16T00:46:18;38.47;;;12.27;;
8092;SDS011;4089;52.420;13.334;2024-02-16T00:48:45;46.00;;;14.47;;
8092;SDS011;4089;52.420;13.334;2024-02-16T00:51:13;41.40;;;13.37;;
8092;SDS011;4089;52.420;13.334;2024-02-16T00:53:40;37.90;;;12.90;;
8092;SDS011;4089;52.420;13.334;2024-02-16T00:56:07;38.23;;;14.00;;
8092;SDS011;4089;52.420;13.334;2024-02-16T00:58:35;44.63;;;15.20;;
8092;SDS011;4089;52.420;13.334;2024-02-16T01:01:03;45.20;;;15.47;;
8092;SDS011;4089;52.420;13.334;2024-02-16T01:03:30;43.87;;;15.63;;
8092;SDS011;4089;52.420;13.334;2024-02-16T01:05:57;46.70;;;14.60;;
8092;SDS011;4089;52.420;13.334;2024-02-16T01:08:24;45.60;;;15.67;;
8092;SDS011;4089;52.420;13.334;2024-02-16T01:10:51;42.57;;;15.90;;
8092;SDS011;4089;52.420;13.334;2024-02-16T01:13:18;45.30;;;16.10;;
8092;SDS011;4089;52.420;13.334;2024-02-16T01:15:44;43.57;;;15.27;;
8092;SDS011;4089;52.420;13.334;2024-02-16T01:18:11;48.00;;;15.47;;
8092;SDS011;4089;52.420;13.334;2024-02-16T01:20:38;44.20;;;15.73;;
8092;SDS011;4089;52.420;13.334;2024-02-16T01:23:05;45.87;;;17.30;;
8092;SDS011;4089;52.420;13.334;2024-02-16T01:25:32;46.83;;;16.70;;
8092;SDS011;4089;52.420;13.334;2024-02-16T01:27:59;46.03;;;15.27;;
8092;SDS011;4089;52.420;13.334;2024-02-16T01:30:25;52.33;;;17.70;;
8092;SDS011;4089;52.420;13.334;2024-02-16T01:32:52;44.37;;;15.97;;
8092;SDS011;4089;52.420;13.334;2024-02-16T01:35:19;50.80;;;17.30;;
8092;SDS011;4089;52.420;13.334;2024-02-16T01:37:46;45.27;;;15.90;;
8092;SDS011;4089;52.420;13.334;2024-02-16T01:40:13;49.67;;;18.07;;
8092;SDS011;4089;52.420;13.334;2024-02-16T01:42:43;62.83;;;19.00;;
8092;SDS011;4089;52.420;13.334;2024-02-16T01:45:10;50.07;;;19.00;;
8092;SDS011;4089;52.420;13.334;2024-02-16T01:47:41;50.03;;;19.20;;
8092;SDS011;4089;52.420;13.334;2024-02-16T01:50:10;50.07;;;20.00;;
8092;SDS011;4089;52.420;13.334;2024-02-16T01:52:37;49.10;;;18.60;;
8092;SDS011;4089;52.420;13.334;2024-02-16T01:55:04;53.23;;;20.47;;
8092;SDS011;4089;52.420;13.334;2024-02-16T01:57:45;55.90;;;19.70;;
8092;SDS011;4089;52.420;13.334;2024-02-16T02:00:14;49.13;;;19.17;;
8092;SDS011;4089;52.420;13.334;2024-02-16T02:02:44;48.03;;;19.43;;
8092;SDS011;4089;52.420;13.334;2024-02-16T02:05:13;50.87;;;20.20;;
8092;SDS011;4089;52.420;13.334;2024-02-16T02:07:42;55.07;;;19.63;;
8092;SDS011;4089;52.420;13.334;2024-02-16T02:10:09;51.73;;;17.97;;
8092;SDS011;4089;52.420;13.334;2024-02-16T02:12:39;51.37;;;20.00;;
8092;SDS011;4089;52.420;13.334;2024-02-16T02:15:07;45.40;;;18.23;;
8092;SDS011;4089;52.420;13.334;2024-02-16T02:17:35;50.83;;;19.60;;
8092;SDS011;4089;52.420;13.334;2024-02-16T02:20:02;56.93;;;20.70;;
8092;SDS011;4089;52.420;13.334;2024-02-16T02:22:30;52.87;;;20.40;;
8092;SDS011;4089;52.420;13.334;2024-02-16T02:24:57;51.53;;;20.20;;
8092;SDS011;4089;52.420;13.334;2024-02-16T02:27:24;59.27;;;20.37;;
8092;SDS011;4089;52.420;13.334;2024-02-16T02:29:51;51.60;;;20.00;;
8092;SDS011;4089;52.420;13.334;2024-02-16T02:32:18;50.07;;;18.87;;
8092;SDS011;4089;52.420;13.334;2024-02-16T02:34:45;55.63;;;20.20;;
8092;SDS011;4089;52.420;13.334;2024-02-16T02:37:12;50.40;;;19.60;;
8092;SDS011;4089;52.420;13.334;2024-02-16T02:39:39;53.40;;;20.77;;
8092;SDS011;4089;52.420;13.334;2024-02-16T02:42:06;53.17;;;21.10;;
8092;SDS011;4089;52.420;13.334;2024-02-16T02:44:34;51.80;;;20.80;;
8092;SDS011;4089;52.420;13.334;2024-02-16T02:47:01;51.20;;;21.60;;
8092;SDS011;4089;52.420;13.334;2024-02-16T02:49:28;50.83;;;20.43;;
8092;SDS011;4089;52.420;13.334;2024-02-16T02:51:55;51.13;;;20.83;;
8092;SDS011;4089;52.420;13.334;2024-02-16T02:54:22;56.87;;;20.00;;
8092;SDS011;4089;52.420;13.334;2024-02-16T02:56:49;54.40;;;20.03;;
8092;SDS011;4089;52.420;13.334;2024-02-16T02:59:16;57.10;;;22.43;;
8092;SDS011;4089;52.420;13.334;2024-02-16T03:01:43;53.63;;;21.70;;
8092;SDS011;4089;52.420;13.334;2024-02-16T03:04:11;66.43;;;20.00;;
8092;SDS011;4089;52.420;13.334;2024-02-16T03:06:38;48.80;;;20.10;;
8092;SDS011;4089;52.420;13.334;2024-02-16T03:09:05;56.97;;;20.27;;
8092;SDS011;4089;52.420;13.334;2024-02-16T03:11:33;48.70;;;20.40;;
8092;SDS011;4089;52.420;13.334;2024-02-16T03:13:59;52.83;;;19.50;;
8092;SDS011;4089;52.420;13.334;2024-02-16T03:16:26;54.53;;;20.10;;
8092;SDS011;4089;52.420;13.334;2024-02-16T03:18:53;53.93;;;18.63;;
8092;SDS011;4089;52.420;13.334;2024-02-16T03:21:21;52.13;;;19.50;;
8092;SDS011;4089;52.420;13.334;2024-02-16T03:23:48;49.37;;;18.80;;
8092;SDS011;4089;52.420;13.334;2024-02-16T03:26:16;51.77;;;20.00;;
8092;SDS011;4089;52.420;13.334;2024-02-16T03:28:44;55.53;;;19.30;;
8092;SDS011;4089;52.420;13.334;2024-02-16T03:31:18;49.30;;;19.30;;
8092;SDS011;4089;52.420;13.334;2024-02-16T03:33:51;50.07;;;18.40;;
8092;SDS011;4089;52.420;13.334;2024-02-16T03:36:19;55.27;;;19.00;;
8092;SDS011;4089;52.420;13.334;2024-02-16T03:38:46;53.17;;;19.67;;
8092;SDS011;4089;52.420;13.334;2024-02-16T03:41:18;58.80;;;21.87;;
8092;SDS011;4089;52.420;13.334;2024-02-16T03:43:46;49.07;;;19.20;;
8092;SDS011;4089;52.420;13.334;2024-02-16T03:46:13;59.80;;;19.20;;
8092;SDS011;4089;52.420;13.334;2024-02-16T03:48:40;54.07;;;18.30;;
8092;SDS011;4089;52.420;13.334;2024-02-16T03:51:07;47.07;;;17.50;;
8092;SDS011;4089;52.420;13.334;2024-02-16T03:53:34;48.80;;;18.83;;
8092;SDS011;4089;52.420;13.334;2024-02-16T03:56:01;47.50;;;17.73;;
8092;SDS011;4089;52.420;13.334;2024-02-16T03:58:28;60.07;;;19.50;;
8092;SDS011;4089;52.420;13.334;2024-02-16T04:00:55;48.87;;;18.80;;
8092;SDS011;4089;52.420;13.334;2024-02-16T04:03:22;50.67;;;18.90;;
8092;SDS011;4089;52.420;13.334;2024-02-16T04:05:49;51.13;;;17.53;;
8092;SDS011;4089;52.420;13.334;2024-02-16T04:08:16;45.43;;;16.37;;
8092;SDS011;4089;52.420;13.334;2024-02-16T04:10:42;45.27;;;18.63;;
8092;SDS011;4089;52.420;13.334;2024-02-16T04:13:12;45.40;;;16.67;;
8092;SDS011;4089;52.420;13.334;2024-02-16T04:15:39;44.80;;;16.57;;
8092;SDS011;4089;52.420;13.334;2024-02-16T04:18:06;46.10;;;16.70;;
8092;SDS011;4089;52.420;13.334;2024-02-16T04:20:33;48.33;;;17.43;;
8092;SDS011;4089;52.420;13.334;2024-02-16T04:23:00;46.80;;;16.70;;
8092;SDS011;4089;52.420;13.334;2024-02-16T04:25:27;46.20;;;17.30;;
8092;SDS011;4089;52.420;13.334;2024-02-16T04:27:54;48.50;;;16.20;;
8092;SDS011;4089;52.420;13.334;2024-02-16T04:30:21;44.90;;;16.70;;
8092;SDS011;4089;52.420;13.334;2024-02-16T04:32:48;48.63;;;16.37;;
8092;SDS011;4089;52.420;13.334;2024-02-16T04:35:15;42.80;;;15.97;;
8092;SDS011;4089;52.420;13.334;2024-02-16T04:37:43;43.83;;;15.20;;
8092;SDS011;4089;52.420;13.334;2024-02-16T04:40:10;46.20;;;17.13;;
8092;SDS011;4089;52.420;13.334;2024-02-16T04:42:40;46.00;;;15.23;;
8092;SDS011;4089;52.420;13.334;2024-02-16T04:45:07;43.70;;;15.60;;
8092;SDS011;4089;52.420;13.334;2024-02-16T04:47:37;43.97;;;14.70;;
8092;SDS011;4089;52.420;13.334;2024-02-16T04:50:04;44.67;;;15.77;;
8092;SDS011;4089;52.420;13.334;2024-02-16T04:52:36;45.73;;;16.30;;
8092;SDS011;4089;52.420;13.334;2024-02-16T04:55:05;46.27;;;15.77;;
8092;SDS011;4089;52.420;13.334;2024-02-16T04:57:35;45.20;;;15.07;;
8092;SDS011;4089;52.420;13.334;2024-02-16T05:00:02;46.00;;;16.73;;
8092;SDS011;4089;52.420;13.334;2024-02-16T05:02:30;42.33;;;15.60;;
8092;SDS011;4089;52.420;13.334;2024-02-16T05:04:57;45.87;;;15.00;;
8092;SDS011;4089;52.420;13.334;2024-02-16T05:07:28;44.07;;;15.87;;
8092;SDS011;4089;52.420;13.334;2024-02-16T05:09:57;52.27;;;16.67;;
8092;SDS011;4089;52.420;13.334;2024-02-16T05:12:25;51.43;;;17.03;;
8092;SDS011;4089;52.420;13.334;2024-02-16T05:14:52;40.67;;;14.67;;
8092;SDS011;4089;52.420;13.334;2024-02-16T05:17:20;49.37;;;15.60;;
8092;SDS011;4089;52.420;13.334;2024-02-16T05:19:48;44.00;;;15.00;;
8092;SDS011;4089;52.420;13.334;2024-02-16T05:22:15;39.97;;;13.80;;
8092;SDS011;4089;52.420;13.334;2024-02-16T05:24:44;47.20;;;15.57;;
8092;SDS011;4089;52.420;13.334;2024-02-16T05:27:11;45.40;;;14.47;;
8092;SDS011;4089;52.420;13.334;2024-02-16T05:29:38;44.40;;;15.80;;
8092;SDS011;4089;52.420;13.334;2024-02-16T05:32:05;46.07;;;15.23;;
8092;SDS011;4089;52.420;13.334;2024-02-16T05:34:32;47.47;;;15.43;;
8092;SDS011;4089;52.420;13.334;2024-02-16T05:37:04;43.13;;;15.17;;
8092;SDS011;4089;52.420;13.334;2024-02-16T05:39:33;44.17;;;15.17;;
8092;SDS011;4089;52.420;13.334;2024-02-16T05:42:09;43.17;;;15.77;;
8092;SDS011;4089;52.420;13.334;2024-02-16T05:44:36;40.30;;;13.60;;
8092;SDS011;4089;52.420;13.334;2024-02-16T05:47:03;47.27;;;14.43;;
8092;SDS011;4089;52.420;13.334;2024-02-16T05:49:30;42.50;;;14.83;;
8092;SDS011;4089;52.420;13.334;2024-02-16T05:51:57;39.57;;;14.33;;
8092;SDS011;4089;52.420;13.334;2024-02-16T05:54:46;43.30;;;14.83;;
8092;SDS011;4089;52.420;13.334;2024-02-16T05:57:16;54.07;;;16.10;;
8092;SDS011;4089;52.420;13.334;2024-02-16T05:59:44;45.33;;;16.10;;
8092;SDS011;4089;52.420;13.334;2024-02-16T06:02:12;42.60;;;13.93;;
8092;SDS011;4089;52.420;13.334;2024-02-16T06:04:39;44.50;;;15.60;;
8092;SDS011;4089;52.420;13.334;2024-02-16T06:07:06;43.33;;;14.70;;
8092;SDS011;4089;52.420;13.334;2024-02-16T06:09:33;44.80;;;15.27;;
8092;SDS011;4089;52.420;13.334;2024-02-16T06:12:02;40.77;;;15.00;;
8092;SDS011;4089;52.420;13.334;2024-02-16T06:14:31;47.23;;;15.67;;
8092;SDS011;4089;52.420;13.334;2024-02-16T06:16:58;42.77;;;14.97;;
8092;SDS011;4089;52.420;13.334;2024-02-16T06:19:26;42.30;;;14.07;;
8092;SDS011;4089;52.420;13.334;2024-02-16T06:21:54;48.90;;;14.17;;
8092;SDS011;4089;52.420;13.334;2024-02-16T06:24:24;43.20;;;14.70;;
8092;SDS011;4089;52.420;13.334;2024-02-16T06:26:51;46.80;;;15.30;;
8092;SDS011;4089;52.420;13.334;2024-02-16T06:29:22;40.00;;;14.73;;
8092;SDS011;4089;52.420;13.334;2024-02-16T06:31:50;39.00;;;14.83;;
8092;SDS011;4089;52.420;13.334;2024-02-16T06:34:17;43.07;;;14.90;;
8092;SDS011;4089;52.420;13.334;2024-02-16T06:36:44;41.90;;;14.60;;
8092;SDS011;4089;52.420;13.334;2024-02-16T06:39:11;41.47;;;14.77;;
8092;SDS011;4089;52.420;13.334;2024-02-16T06:41:43;39.67;;;14.60;;
8092;SDS011;4089;52.420;13.334;2024-02-16T06:44:15;42.37;;;13.63;;
8092;SDS011;4089;52.420;13.334;2024-02-16T06:46:43;38.77;;;12.60;;
8092;SDS011;4089;52.420;13.334;2024-02-16T06:49:10;43.50;;;14.27;;
8092;SDS011;4089;52.420;13.334;2024-02-16T06:51:37;43.53;;;13.90;;
8092;SDS011;4089;52.420;13.334;2024-02-16T06:54:04;47.23;;;14.93;;
8092;SDS011;4089;52.420;13.334;2024-02-16T06:56:31;41.43;;;14.30;;
8092;SDS011;4089;52.420;13.334;2024-02-16T06:58:58;40.87;;;14.83;;
8092;SDS011;4089;52.420;13.334;2024-02-16T07:01:25;47.50;;;14.50;;
8092;SDS011;4089;52.420;13.334;2024-02-16T07:03:54;42.17;;;14.20;;
8092;SDS011;4089;52.420;13.334;2024-02-16T07:06:21;41.07;;;14.60;;
8092;SDS011;4089;52.420;13.334;2024-02-16T07:08:48;43.63;;;13.63;;
8092;SDS011;4089;52.420;13.334;2024-02-16T07:11:14;43.13;;;14.17;;
8092;SDS011;4089;52.420;13.334;2024-02-16T07:13:41;41.93;;;14.50;;
8092;SDS011;4089;52.420;13.334;2024-02-16T07:16:09;39.80;;;13.83;;
8092;SDS011;4089;52.420;13.334;2024-02-16T07:18:36;37.70;;;13.50;;
8092;SDS011;4089;52.420;13.334;2024-02-16T07:21:03;43.47;;;13.03;;
8092;SDS011;4089;52.420;13.334;2024-02-16T07:23:30;40.90;;;14.30;;
8092;SDS011;4089;52.420;13.334;2024-02-16T07:25:57;42.27;;;13.53;;
8092;SDS011;4089;52.420;13.334;2024-02-16T07:28:25;38.27;;;12.07;;
8092;SDS011;4089;52.420;13.334;2024-02-16T07:30:55;40.43;;;13.37;;
8092;SDS011;4089;52.420;13.334;2024-02-16T07:33:21;42.40;;;13.40;;
8092;SDS011;4089;52.420;13.334;2024-02-16T07:35:51;41.63;;;13.93;;
8092;SDS011;4089;52.420;13.334;2024-02-16T07:38:18;41.13;;;12.83;;
8092;SDS011;4089;52.420;13.334;2024-02-16T07:40:48;39.73;;;13.60;;
8092;SDS011;4089;52.420;13.334;2024-02-16T07:43:17;39.00;;;13.07;;
8092;SDS011;4089;52.420;13.334;2024-02-16T07:45:44;44.83;;;13.40;;
8092;SDS011;4089;52.420;13.334;2024-02-16T07:48:12;38.47;;;13.77;;
8092;SDS011;4089;52.420;13.334;2024-02-16T07:50:39;49.83;;;15.17;;
8092;SDS011;4089;52.420;13.334;2024-02-16T07:53:06;42.17;;;14.57;;
8092;SDS011;4089;52.420;13.334;2024-02-16T07:55:36;40.20;;;13.70;;
8092;SDS011;4089;52.420;13.334;2024-02-16T07:58:02;36.37;;;12.60;;
8092;SDS011;4089;52.420;13.334;2024-02-16T08:00:29;38.07;;;13.60;;
8092;SDS011;4089;52.420;13.334;2024-02-16T08:02:56;38.67;;;13.40;;
8092;SDS011;4089;52.420;13.334;2024-02-16T08:05:23;39.97;;;12.23;;
8092;SDS011;4089;52.420;13.334;2024-02-16T08:07:52;38.70;;;11.80;;
8092;SDS011;4089;52.420;13.334;2024-02-16T08:10:19;37.23;;;11.87;;
8092;SDS011;4089;52.420;13.334;2024-02-16T08:12:51;39.07;;;12.20;;
8092;SDS011;4089;52.420;13.334;2024-02-16T08:15:19;37.53;;;12.60;;
8092;SDS011;4089;52.420;13.334;2024-02-16T08:17:52;37.27;;;11.53;;
8092;SDS011;4089;52.420;13.334;2024-02-16T08:20:20;34.67;;;10.10;;
8092;SDS011;4089;52.420;13.334;2024-02-16T08:22:47;37.37;;;11.53;;
8092;SDS011;4089;52.420;13.334;2024-02-16T08:25:14;35.27;;;10.30;;
8092;SDS011;4089;52.420;13.334;2024-02-16T08:27:41;37.10;;;10.80;;
8092;SDS011;4089;52.420;13.334;2024-02-16T08:30:08;35.93;;;10.80;;
8092;SDS011;4089;52.420;13.334;2024-02-16T08:32:36;34.70;;;10.70;;
8092;SDS011;4089;52.420;13.334;2024-02-16T08:35:03;34.07;;;9.97;;
8092;SDS011;4089;52.420;13.334;2024-02-16T08:37:30;33.10;;;9.80;;
8092;SDS011;4089;52.420;13.334;2024-02-16T08:39:57;32.70;;;9.50;;
8092;SDS011;4089;52.420;13.334;2024-02-16T08:42:24;38.27;;;9.40;;
8092;SDS011;4089;52.420;13.334;2024-02-16T08:44:51;32.30;;;9.17;;
8092;SDS011;4089;52.420;13.334;2024-02-16T08:47:18;33.67;;;9.23;;
8092;SDS011;4089;52.420;13.334;2024-02-16T08:49:45;34.03;;;9.63;;
8092;SDS011;4089;52.420;13.334;2024-02-16T08:52:12;34.73;;;8.70;;
8092;SDS011;4089;52.420;13.334;2024-02-16T08:54:39;34.37;;;8.53;;
8092;SDS011;4089;52.420;13.334;2024-02-16T08:57:06;28.67;;;8.00;;
8092;SDS011;4089;52.420;13.334;2024-02-16T08:59:33;36.60;;;8.10;;
8092;SDS011;4089;52.420;13.334;2024-02-16T09:02:00;35.10;;;8.80;;
8092;SDS011;4089;52.420;13.334;2024-02-16T09:04:27;33.50;;;7.60;;
8092;SDS011;4089;52.420;13.334;2024-02-16T09:06:54;34.60;;;8.30;;
8092;SDS011;4089;52.420;13.334;2024-02-16T09:09:21;31.30;;;7.90;;
8092;SDS011;4089;52.420;13.334;2024-02-16T09:11:49;31.00;;;7.93;;
8092;SDS011;4089;52.420;13.334;2024-02-16T09:14:16;31.93;;;8.70;;
8092;SDS011;4089;52.420;13.334;2024-02-16T09:16:43;29.43;;;7.37;;
8092;SDS011;4089;52.420;13.334;2024-02-16T09:19:09;35.73;;;8.07;;
8092;SDS011;4089;52.420;13.334;2024-02-16T09:21:36;31.30;;;7.10;;
8092;SDS011;4089;52.420;13.334;2024-02-16T09:24:03;32.60;;;7.07;;
8092;SDS011;4089;52.420;13.334;2024-02-16T09:26:36;33.30;;;8.27;;
8092;SDS011;4089;52.420;13.334;2024-02-16T09:29:03;31.27;;;7.57;;
8092;SDS011;4089;52.420;13.334;2024-02-16T09:31:30;29.73;;;6.93;;
8092;SDS011;4089;52.420;13.334;2024-02-16T09:33:57;30.33;;;5.93;;
8092;SDS011;4089;52.420;13.334;2024-02-16T09:36:24;28.90;;;6.67;;
8092;SDS011;4089;52.420;13.334;2024-02-16T09:38:51;28.50;;;7.07;;
8092;SDS011;4089;52.420;13.334;2024-02-16T09:41:17;39.80;;;6.70;;
8092;SDS011;4089;52.420;13.334;2024-02-16T09:43:46;30.60;;;7.70;;
8092;SDS011;4089;52.420;13.334;2024-02-16T09:46:12;27.30;;;6.20;;
8092;SDS011;4089;52.420;13.334;2024-02-16T09:48:40;28.90;;;6.13;;
8092;SDS011;4089;52.420;13.334;2024-02-16T09:51:10;31.07;;;7.07;;
8092;SDS011;4089;52.420;13.334;2024-02-16T09:53:37;26.27;;;5.77;;
8092;SDS011;4089;52.420;13.334;2024-02-16T09:56:05;27.17;;;5.73;;
8092;SDS011;4089;52.420;13.334;2024-02-16T09:58:35;28.40;;;5.70;;
8092;SDS011;4089;52.420;13.334;2024-02-16T10:01:02;28.50;;;5.60;;
8092;SDS011;4089;52.420;13.334;2024-02-16T10:03:29;28.03;;;5.37;;
8092;SDS011;4089;52.420;13.334;2024-02-16T10:06:09;29.10;;;5.07;;
8092;SDS011;4089;52.420;13.334;2024-02-16T10:08:48;29.97;;;5.57;;
8092;SDS011;4089;52.420;13.334;2024-02-16T10:11:24;26.57;;;4.57;;
8092;SDS011;4089;52.420;13.334;2024-02-16T10:13:54;29.13;;;5.13;;
8092;SDS011;4089;52.420;13.334;2024-02-16T10:16:23;27.27;;;5.20;;
8092;SDS011;4089;52.420;13.334;2024-02-16T10:18:50;29.43;;;6.07;;
8092;SDS011;4089;52.420;13.334;2024-02-16T10:21:24;26.80;;;5.00;;
8092;SDS011;4089;52.420;13.334;2024-02-16T10:24:02;26.83;;;5.03;;
8092;SDS011;4089;52.420;13.334;2024-02-16T10:26:36;26.53;;;4.47;;
8092;SDS011;4089;52.420;13.334;2024-02-16T10:29:04;26.30;;;5.33;;
8092;SDS011;4089;52.420;13.334;2024-02-16T10:31:32;26.40;;;4.90;;
8092;SDS011;4089;52.420;13.334;2024-02-16T10:34:00;25.70;;;5.03;;
8092;SDS011;4089;52.420;13.334;2024-02-16T10:36:32;25.43;;;4.43;;
8092;SDS011;4089;52.420;13.334;2024-02-16T10:39:01;30.80;;;5.40;;
8092;SDS011;4089;52.420;13.334;2024-02-16T10:41:36;26.80;;;4.77;;
8092;SDS011;4089;52.420;13.334;2024-02-16T10:44:04;25.90;;;5.07;;
8092;SDS011;4089;52.420;13.334;2024-02-16T10:46:32;29.13;;;5.80;;
8092;SDS011;4089;52.420;13.334;2024-02-16T10:49:00;26.20;;;4.80;;
8092;SDS011;4089;52.420;13.334;2024-02-16T10:51:37;26.43;;;4.60;;
8092;SDS011;4089;52.420;13.334;2024-02-16T10:54:06;26.77;;;5.27;;
8092;SDS011;4089;52.420;13.334;2024-02-16T10:56:36;27.30;;;5.33;;
8092;SDS011;4089;52.420;13.334;2024-02-16T10:59:05;29.47;;;5.10;;
8092;SDS011;4089;52.420;13.334;2024-02-16T11:01:38;25.90;;;5.17;;
8092;SDS011;4089;52.420;13.334;2024-02-16T11:04:06;30.93;;;5.10;;
8092;SDS011;4089;52.420;13.334;2024-02-16T11:06:54;28.93;;;5.57;;
8092;SDS011;4089;52.420;13.334;2024-02-16T11:09:27;25.30;;;4.90;;
8092;SDS011;4089;52.420;13.334;2024-02-16T11:11:55;26.30;;;4.83;;
8092;SDS011;4089;52.420;13.334;2024-02-16T11:14:34;33.47;;;5.20;;
8092;SDS011;4089;52.420;13.334;2024-02-16T11:17:07;25.00;;;4.70;;
8092;SDS011;4089;52.420;13.334;2024-02-16T11:19:41;27.53;;;4.90;;
8092;SDS011;4089;52.420;13.334;2024-02-16T11:22:10;25.97;;;4.57;;
8092;SDS011;4089;52.420;13.334;2024-02-16T11:24:44;26.00;;;4.57;;
8092;SDS011;4089;52.420;13.334;2024-02-16T11:27:16;27.30;;;4.57;;
8092;SDS011;4089;52.420;13.334;2024-02-16T11:29:47;25.60;;;4.40;;
8092;SDS011;4089;52.420;13.334;2024-02-16T11:32:18;27.57;;;5.07;;
8092;SDS011;4089;52.420;13.334;2024-02-16T11:34:45;26.47;;;4.97;;
8092;SDS011;4089;52.420;13.334;2024-02-16T11:37:13;26.70;;;4.47;;
8092;SDS011;4089;52.420;13.334;2024-02-16T11:39:43;30.73;;;5.10;;
8092;SDS011;4089;52.420;13.334;2024-02-16T11:42:13;25.60;;;4.20;;
8092;SDS011;4089;52.420;13.334;2024-02-16T11:44:55;25.20;;;3.90;;
8092;SDS011;4089;52.420;13.334;2024-02-16T11:47:23;27.50;;;4.90;;
8092;SDS011;4089;52.420;13.334;2024-02-16T11:50:03;27.83;;;4.97;;
8092;SDS011;4089;52.420;13.334;2024-02-16T11:52:31;28.90;;;4.47;;
8092;SDS011;4089;52.420;13.334;2024-02-16T11:55:00;26.47;;;4.60;;
8092;SDS011;4089;52.420;13.334;2024-02-16T11:57:30;25.20;;;3.70;;
8092;SDS011;4089;52.420;13.334;2024-02-16T11:59:57;25.43;;;4.07;;
8092;SDS011;4089;52.420;13.334;2024-02-16T12:02:24;25.23;;;4.13;;
8092;SDS011;4089;52.420;13.334;2024-02-16T12:04:58;24.90;;;3.80;;
8092;SDS011;4089;52.420;13.334;2024-02-16T12:07:29;24.83;;;3.90;;
8092;SDS011;4089;52.420;13.334;2024-02-16T12:09:57;23.93;;;3.23;;
8092;SDS011;4089;52.420;13.334;2024-02-16T12:12:25;23.43;;;2.73;;
8092;SDS011;4089;52.420;13.334;2024-02-16T12:14:54;28.03;;;3.50;;
8092;SDS011;4089;52.420;13.334;2024-02-16T12:17:21;26.47;;;4.03;;
8092;SDS011;4089;52.420;13.334;2024-02-16T12:19:50;27.23;;;4.67;;
8092;SDS011;4089;52.420;13.334;2024-02-16T12:22:18;27.77;;;4.07;;
8092;SDS011;4089;52.420;13.334;2024-02-16T12:24:50;27.87;;;4.60;;
8092;SDS011;4089;52.420;13.334;2024-02-16T12:27:17;28.77;;;4.50;;
8092;SDS011;4089;52.420;13.334;2024-02-16T12:29:45;25.43;;;4.37;;
8092;SDS011;4089;52.420;13.334;2024-02-16T12:32:12;33.43;;;6.20;;
8092;SDS011;4089;52.420;13.334;2024-02-16T12:34:44;29.53;;;4.67;;
8092;SDS011;4089;52.420;13.334;2024-02-16T12:37:12;25.13;;;3.90;;
8092;SDS011;4089;52.420;13.334;2024-02-16T12:39:39;26.70;;;3.77;;
8092;SDS011;4089;52.420;13.334;2024-02-16T12:42:06;24.90;;;3.90;;
8092;SDS011;4089;52.420;13.334;2024-02-16T12:44:34;31.23;;;5.23;;
8092;SDS011;4089;52.420;13.334;2024-02-16T12:47:00;26.33;;;3.30;;
8092;SDS011;4089;52.420;13.334;2024-02-16T12:49:27;25.20;;;3.67;;
8092;SDS011;4089;52.420;13.334;2024-02-16T12:51:54;25.23;;;3.53;;
8092;SDS011;4089;52.420;13.334;2024-02-16T12:54:21;26.60;;;3.30;;
8092;SDS011;4089;52.420;13.334;2024-02-16T12:56:48;34.93;;;4.30;;
8092;SDS011;4089;52.420;13.334;2024-02-16T12:59:16;22.73;;;2.43;;
8092;SDS011;4089;52.420;13.334;2024-02-16T13:01:43;25.53;;;3.17;;
8092;SDS011;4089;52.420;13.334;2024-02-16T13:04:11;23.80;;;2.70;;
8092;SDS011;4089;52.420;13.334;2024-02-16T13:06:39;25.17;;;3.73;;
8092;SDS011;4089;52.420;13.334;2024-02-16T13:09:06;24.70;;;2.93;;
8092;SDS011;4089;52.420;13.334;2024-02-16T13:11:34;23.80;;;2.50;;
8092;SDS011;4089;52.420;13.334;2024-02-16T13:14:01;28.30;;;2.33;;
8092;SDS011;4089;52.420;13.334;2024-02-16T13:16:28;22.67;;;2.27;;
8092;SDS011;4089;52.420;13.334;2024-02-16T13:18:55;23.00;;;2.37;;
8092;SDS011;4089;52.420;13.334;2024-02-16T13:21:22;24.13;;;2.47;;
8092;SDS011;4089;52.420;13.334;2024-02-16T13:23:48;25.53;;;2.63;;
8092;SDS011;4089;52.420;13.334;2024-02-16T13:26:16;25.30;;;2.50;;
8092;SDS011;4089;52.420;13.334;2024-02-16T13:28:43;25.17;;;2.27;;
8092;SDS011;4089;52.420;13.334;2024-02-16T13:31:10;26.63;;;2.00;;
8092;SDS011;4089;52.420;13.334;2024-02-16T13:33:37;28.77;;;2.30;;
8092;SDS011;4089;52.420;13.334;2024-02-16T13:36:05;22.07;;;1.80;;
8092;SDS011;4089;52.420;13.334;2024-02-16T13:38:32;25.47;;;2.60;;
8092;SDS011;4089;52.420;13.334;2024-02-16T13:40:59;24.40;;;2.70;;
8092;SDS011;4089;52.420;13.334;2024-02-16T13:43:26;23.90;;;2.60;;
8092;SDS011;4089;52.420;13.334;2024-02-16T13:45:54;23.40;;;2.53;;
8092;SDS011;4089;52.420;13.334;2024-02-16T13:48:24;22.47;;;2.30;;
8092;SDS011;4089;52.420;13.334;2024-02-16T13:50:51;23.10;;;2.40;;
8092;SDS011;4089;52.420;13.334;2024-02-16T13:53:22;25.87;;;2.50;;
8092;SDS011;4089;52.420;13.334;2024-02-16T13:55:51;23.13;;;2.23;;
8092;SDS011;4089;52.420;13.334;2024-02-16T13:58:18;23.93;;;2.70;;
8092;SDS011;4089;52.420;13.334;2024-02-16T14:00:45;26.27;;;3.90;;
8092;SDS011;4089;52.420;13.334;2024-02-16T14:03:13;25.73;;;2.77;;
8092;SDS011;4089;52.420;13.334;2024-02-16T14:05:41;27.40;;;2.50;;
8092;SDS011;4089;52.420;13.334;2024-02-16T14:08:10;23.03;;;2.30;;
8092;SDS011;4089;52.420;13.334;2024-02-16T14:10:39;23.87;;;2.70;;
8092;SDS011;4089;52.420;13.334;2024-02-16T14:13:06;26.17;;;2.93;;
8092;SDS011;4089;52.420;13.334;2024-02-16T14:15:32;24.63;;;2.27;;
8092;SDS011;4089;52.420;13.334;2024-02-16T14:17:59;23.60;;;2.27;;
8092;SDS011;4089;52.420;13.334;2024-02-16T14:20:37;23.33;;;2.43;;
8092;SDS011;4089;52.420;13.334;2024-02-16T14:23:04;24.50;;;2.63;;
8092;SDS011;4089;52.420;13.334;2024-02-16T14:25:34;26.20;;;2.90;;
8092;SDS011;4089;52.420;13.334;2024-02-16T14:28:04;22.80;;;2.43;;
8092;SDS011;4089;52.420;13.334;2024-02-16T14:30:31;22.90;;;2.50;;
8092;SDS011;4089;52.420;13.334;2024-02-16T14:33:01;23.83;;;2.27;;
8092;SDS011;4089;52.420;13.334;2024-02-16T14:35:31;25.53;;;2.47;;
8092;SDS011;4089;52.420;13.334;2024-02-16T14:38:02;25.87;;;2.73;;
8092;SDS011;4089;52.420;13.334;2024-02-16T14:40:32;23.10;;;2.83;;
8092;SDS011;4089;52.420;13.334;2024-02-16T14:43:00;24.40;;;2.67;;
8092;SDS011;4089;52.420;13.334;2024-02-16T14:45:27;22.90;;;2.40;;
8092;SDS011;4089;52.420;13.334;2024-02-16T14:47:55;24.67;;;2.80;;